Time;durP1;ratioP1;P1;durP2;ratioP2;P2;SDS_P1;SDS_P2;PMS_P1;PMS_P2;Temp;Humidity;BMP_temperature;BMP_pressure;BME280_temperature;BME280_humidity;BME280_pressure;Samples;Min_cycle;Max_cycle;Signal;HPM_P1;HPM_P2
2023/01/21 00:01:43;;;;;;;13.80;8.00;;;;;;;-1.21;48.25;95871.19;5066108;28;20103;-78
2023/01/21 00:04:09;;;;;;;12.93;8.57;;;;;;;-2.40;49.54;95877.53;5063363;28;20104;-77
2023/01/21 00:06:35;;;;;;;12.20;7.88;;;;;;;-2.05;48.91;95872.88;5068259;28;20123;-77
2023/01/21 00:09:01;;;;;;;13.85;7.93;;;;;;;-1.56;48.67;95869.03;5065741;28;20081;-77
2023/01/21 00:11:27;;;;;;;12.32;8.02;;;;;;;-1.57;48.82;95874.38;5068235;28;20154;-77
2023/01/21 00:13:52;;;;;;;12.48;7.53;;;;;;;-1.24;47.85;95870.53;5067472;28;20114;-77
2023/01/21 00:16:17;;;;;;;13.05;7.97;;;;;;;-1.53;47.17;95866.22;5074720;28;20141;-77
2023/01/21 00:18:43;;;;;;;10.48;7.47;;;;;;;-1.41;47.11;95880.28;5070046;28;20116;-77
2023/01/21 00:21:08;;;;;;;13.57;8.45;;;;;;;-1.41;46.22;95874.22;5071978;28;20407;-77
2023/01/21 00:23:34;;;;;;;11.20;7.25;;;;;;;-1.54;46.21;95880.22;5058746;28;20413;-77
2023/01/21 00:26:03;;;;;;;12.27;7.80;;;;;;;-1.42;46.66;95885.63;5072953;28;20100;-77
2023/01/21 00:28:29;;;;;;;;;;;;;;;-1.60;46.82;95883.19;5067103;28;20363;-76
2023/01/21 00:31:01;;;;;;;13.05;7.53;;;;;;;-1.54;46.75;95888.06;5065092;28;20449;-65
2023/01/21 00:33:27;;;;;;;10.32;6.90;;;;;;;-1.49;45.77;95888.59;5068622;28;20084;-65
2023/01/21 00:36:12;;;;;;;11.30;7.03;;;;;;;-1.70;46.99;95895.16;5071396;28;20536;-65
2023/01/21 00:38:38;;;;;;;9.80;6.25;;;;;;;-1.79;46.49;95899.19;5071993;28;20168;-65
2023/01/21 00:41:08;;;;;;;11.63;7.30;;;;;;;-1.98;47.44;95901.13;5069690;28;20604;-65
2023/01/21 00:43:33;;;;;;;10.88;6.80;;;;;;;-1.79;47.52;95907.00;5068380;28;20111;-65
2023/01/21 00:45:59;;;;;;;11.10;7.07;;;;;;;-1.69;46.50;95899.44;5068653;28;20093;-65
2023/01/21 00:48:24;;;;;;;11.32;7.50;;;;;;;-1.80;46.03;95906.16;5076430;28;20111;-65
2023/01/21 00:50:50;;;;;;;13.27;8.02;;;;;;;-1.93;46.33;95916.50;5074399;28;20120;-65
2023/01/21 00:53:17;;;;;;;12.05;7.78;;;;;;;-1.91;46.13;95919.03;5070801;28;20076;-65
2023/01/21 00:55:42;;;;;;;13.27;7.88;;;;;;;-2.25;48.17;95917.50;5071216;28;20203;-65
2023/01/21 00:58:07;;;;;;;13.80;8.45;;;;;;;-1.96;46.96;95926.28;5066631;28;20846;-65
2023/01/21 01:00:33;;;;;;;13.45;8.40;;;;;;;-2.01;48.22;95930.03;5070032;28;20081;-65
2023/01/21 01:02:58;;;;;;;16.15;8.85;;;;;;;-2.19;49.39;95929.34;5065180;28;20089;-65
2023/01/21 01:05:24;;;;;;;13.27;7.70;;;;;;;-2.18;50.55;95938.00;5067353;28;20081;-65
2023/01/21 01:07:49;;;;;;;13.35;8.05;;;;;;;-2.38;48.53;95945.22;5072299;28;20568;-65
2023/01/21 01:10:15;;;;;;;12.73;8.20;;;;;;;-2.19;47.51;95938.94;5076748;28;20369;-65
2023/01/21 01:12:41;;;;;;;12.82;7.88;;;;;;;-2.44;48.81;95945.59;5069980;28;20155;-65
2023/01/21 01:15:06;;;;;;;14.40;7.45;;;;;;;-2.40;47.63;95947.94;5074340;28;20116;-65
2023/01/21 01:17:32;;;;;;;11.70;7.60;;;;;;;-2.27;47.89;95952.44;5075912;28;20084;-65
2023/01/21 01:19:57;;;;;;;12.82;7.72;;;;;;;-2.48;48.17;95962.34;5076057;28;20115;-65
2023/01/21 01:22:23;;;;;;;13.18;7.88;;;;;;;-2.35;47.63;95958.09;5071054;28;20077;-65
2023/01/21 01:24:48;;;;;;;13.18;7.88;;;;;;;-2.54;49.15;95966.97;5069856;28;20089;-65
2023/01/21 01:27:13;;;;;;;13.70;8.02;;;;;;;-2.60;48.39;95969.09;5064739;28;20120;-65
2023/01/21 01:29:39;;;;;;;12.38;6.88;;;;;;;-2.74;48.70;95968.13;5073125;28;20073;-65
2023/01/21 01:32:04;;;;;;;13.23;8.13;;;;;;;-2.66;48.57;95976.34;5067448;28;20097;-65
2023/01/21 01:34:30;;;;;;;11.27;7.60;;;;;;;-2.78;49.26;95970.03;5065076;28;20104;-65
2023/01/21 01:36:55;;;;;;;15.05;8.27;;;;;;;-2.64;49.91;95982.28;5072767;28;20139;-65
2023/01/21 01:39:21;;;;;;;12.68;7.80;;;;;;;-2.85;49.69;95988.72;5073271;28;20105;-65
2023/01/21 01:41:46;;;;;;;14.27;8.23;;;;;;;-2.92;49.93;95983.84;5070079;28;20536;-65
2023/01/21 01:44:49;;;;;;;12.25;8.23;;;;;;;-3.13;48.57;95991.06;5069820;28;20154;-65
2023/01/21 01:47:14;;;;;;;14.77;7.65;;;;;;;-3.15;48.57;96000.75;5066456;28;20483;-65
2023/01/21 01:49:40;;;;;;;15.00;7.95;;;;;;;-3.17;48.75;96003.44;5068073;28;20093;-65
2023/01/21 01:52:05;;;;;;;12.90;7.50;;;;;;;-3.24;50.10;96011.63;5069306;28;20101;-65
2023/01/21 01:54:33;;;;;;;11.50;7.18;;;;;;;-3.21;48.46;96008.88;5067558;28;20096;-65
2023/01/21 01:57:00;;;;;;;13.95;8.40;;;;;;;-3.19;49.45;96007.84;5068447;28;20585;-65
2023/01/21 01:59:25;;;;;;;12.52;7.60;;;;;;;-3.27;48.14;96016.09;5049549;28;20099;-65
2023/01/21 02:01:51;;;;;;;12.18;7.75;;;;;;;-3.62;49.83;96024.00;5073995;28;20433;-65
2023/01/21 02:04:19;;;;;;;14.88;8.10;;;;;;;-3.40;50.59;96025.47;5071343;28;20157;-65
2023/01/21 02:06:44;;;;;;;12.30;7.45;;;;;;;-3.30;49.92;96026.69;5053876;28;20124;-65
2023/01/21 02:09:10;;;;;;;15.48;8.63;;;;;;;-3.42;55.31;96030.78;5071996;28;20080;-65
2023/01/21 02:11:35;;;;;;;12.13;7.95;;;;;;;-3.54;51.29;96041.81;5069632;28;20100;-65
2023/01/21 02:14:00;;;;;;;13.23;8.60;;;;;;;-3.43;53.28;96036.06;5067571;28;20428;-65
2023/01/21 02:17:00;;;;;;;13.07;7.97;;;;;;;-3.31;51.79;96032.81;5066650;28;20096;-65
2023/01/21 02:19:37;;;;;;;;;;;;;;;-3.42;51.15;96046.41;5070960;27;20104;-65
2023/01/21 02:22:14;;;;;;;13.23;7.57;;;;;;;-3.50;51.07;96043.34;5073671;28;19991;-65
2023/01/21 02:25:01;;;;;;;13.35;7.60;;;;;;;-3.44;50.91;96052.59;5069706;28;20104;-65
2023/01/21 02:27:35;;;;;;;14.45;8.43;;;;;;;-3.68;51.82;96053.78;5070063;28;20108;-65
2023/01/21 02:30:09;;;;;;;11.40;7.07;;;;;;;-3.83;51.61;96060.63;5074000;28;20681;-65
2023/01/21 02:32:56;;;;;;;12.63;7.38;;;;;;;-3.61;50.37;96061.28;5070099;28;20613;-65
2023/01/21 02:35:26;;;;;;;14.13;7.72;;;;;;;-3.60;50.96;96069.00;5070880;28;20526;-65
2023/01/21 02:38:13;;;;;;;14.65;8.35;;;;;;;-3.59;52.37;96067.25;5070507;28;20449;-65
2023/01/21 02:40:53;;;;;;;13.80;7.20;;;;;;;-3.59;49.82;96075.91;5068228;28;20096;-65
2023/01/21 02:43:33;;;;;;;12.13;7.70;;;;;;;-3.60;49.99;96071.59;5064101;28;20163;-65
2023/01/21 02:46:04;;;;;;;10.77;6.88;;;;;;;-3.84;49.62;96071.09;5070076;28;20174;-65
2023/01/21 02:48:34;;;;;;;11.52;7.28;;;;;;;-3.56;49.81;96072.31;5051387;28;20652;-65
2023/01/21 02:51:01;;;;;;;11.45;7.15;;;;;;;-3.47;50.77;96076.22;5066511;28;20142;-65
2023/01/21 02:53:29;;;;;;;11.07;6.50;;;;;;;-3.54;48.88;96078.25;5068882;28;20185;-65
2023/01/21 02:55:56;;;;;;;11.55;7.20;;;;;;;-3.65;48.80;96081.41;5070585;28;20110;-65
2023/01/21 02:58:24;;;;;;;11.85;6.72;;;;;;;-3.54;50.35;96080.88;5073635;28;20179;-65
2023/01/21 03:01:04;;;;;;;14.23;7.57;;;;;;;-3.72;50.73;96086.09;5065992;28;20088;-65
2023/01/21 03:03:54;;;;;;;12.85;7.22;;;;;;;-3.76;52.36;96094.97;5063789;28;20117;-65
2023/01/21 03:06:28;;;;;;;11.60;7.10;;;;;;;-3.61;52.22;96088.16;5062203;28;20548;-65
2023/01/21 03:09:27;;;;;;;10.63;6.30;;;;;;;-3.74;50.20;96100.13;5070772;28;20181;-65
2023/01/21 03:12:07;;;;;;;10.95;6.25;;;;;;;-3.78;48.69;96092.44;5078264;28;20391;-65
2023/01/21 03:17:56;;;;;;;12.23;7.22;;;;;;;-3.84;49.73;96089.31;5069137;28;20099;-65
2023/01/21 03:20:28;;;;;;;13.02;7.30;;;;;;;-3.88;50.23;96093.81;5066426;28;20122;-65
2023/01/21 03:23:11;;;;;;;12.27;7.55;;;;;;;-3.96;50.21;96095.97;5069138;28;20538;-65
2023/01/21 03:25:37;;;;;;;11.02;7.10;;;;;;;-3.92;49.92;96100.09;5052538;28;20093;-65
2023/01/21 03:28:06;;;;;;;12.13;7.15;;;;;;;-4.01;50.59;96100.56;5071360;28;20373;-65
2023/01/21 03:30:32;;;;;;;12.55;7.15;;;;;;;-4.07;50.34;96099.91;5051575;28;20097;-65
2023/01/21 03:32:57;;;;;;;12.38;6.97;;;;;;;-4.04;50.78;96104.97;5074251;28;20068;-65
2023/01/21 03:35:28;;;;;;;13.07;7.82;;;;;;;-4.11;53.00;96103.59;5070999;28;20107;-65
2023/01/21 03:38:12;;;;;;;10.60;6.43;;;;;;;-4.19;52.62;96101.38;5068892;28;20085;-65
2023/01/21 03:40:47;;;;;;;10.77;6.43;;;;;;;-4.16;53.57;96108.19;5071248;28;20138;-65
2023/01/21 03:43:12;;;;;;;13.50;7.47;;;;;;;-4.29;52.44;96110.53;5067463;28;20104;-65
2023/01/21 03:45:45;;;;;;;11.60;7.45;;;;;;;-4.24;52.17;96110.31;5072493;28;20175;-65
2023/01/21 03:48:30;;;;;;;12.02;7.00;;;;;;;-4.31;52.50;96115.78;5068315;28;20604;-65
2023/01/21 03:50:58;;;;;;;11.05;6.80;;;;;;;-4.27;52.98;96120.84;5052664;28;20183;-65
2023/01/21 03:53:24;;;;;;;10.13;6.75;;;;;;;-4.29;52.45;96123.53;5068320;28;20074;-65
2023/01/21 03:55:50;;;;;;;11.23;6.70;;;;;;;-4.33;52.74;96124.59;5070434;28;20110;-65
2023/01/21 03:58:15;;;;;;;13.38;7.68;;;;;;;-4.34;53.75;96130.72;5067311;28;20484;-65
2023/01/21 04:00:41;;;;;;;10.77;6.72;;;;;;;-4.30;53.04;96133.09;5069526;28;20077;-65
2023/01/21 04:03:06;;;;;;;11.68;7.20;;;;;;;-4.36;52.74;96135.13;5062889;28;20568;-65
2023/01/21 04:05:31;;;;;;;11.00;7.05;;;;;;;-4.37;51.57;96133.44;5068956;28;20092;-65
2023/01/21 04:07:57;;;;;;;14.18;6.93;;;;;;;-4.41;52.68;96142.31;5069346;28;20141;-65
2023/01/21 04:10:22;;;;;;;13.00;6.85;;;;;;;-4.60;52.15;96136.22;5071089;28;20104;-65
2023/01/21 04:12:48;;;;;;;11.77;7.45;;;;;;;-4.62;51.36;96142.41;5069280;28;20758;-65
2023/01/21 04:15:13;;;;;;;11.32;7.20;;;;;;;-4.60;52.43;96135.34;5071372;28;20097;-65
2023/01/21 04:17:38;;;;;;;12.82;6.90;;;;;;;-4.61;53.43;96134.53;5072464;28;20087;-65
2023/01/21 04:20:05;;;;;;;17.02;7.75;;;;;;;-4.64;52.45;96145.06;5068897;28;20194;-65
2023/01/21 04:22:30;;;;;;;13.32;6.35;;;;;;;-4.65;54.13;96142.53;5065349;28;20100;-65
2023/01/21 04:24:56;;;;;;;13.35;6.50;;;;;;;-4.74;52.19;96144.66;5071292;28;20141;-65
2023/01/21 04:27:21;;;;;;;10.70;6.15;;;;;;;-4.83;54.26;96155.44;5069992;28;20043;-65
2023/01/21 04:29:47;;;;;;;12.30;7.22;;;;;;;-4.82;50.51;96154.53;5070011;28;20032;-65
2023/01/21 04:32:12;;;;;;;9.88;6.63;;;;;;;-4.85;51.97;96147.69;5065814;28;20048;-65
2023/01/21 04:34:38;;;;;;;11.40;6.63;;;;;;;-4.91;54.37;96154.94;5070695;28;20033;-64
2023/01/21 04:37:03;;;;;;;11.82;6.50;;;;;;;-4.88;53.35;96155.66;5069129;28;20062;-64
2023/01/21 04:39:28;;;;;;;15.05;8.27;;;;;;;-5.35;53.04;96162.00;5070350;28;20036;-65
2023/01/21 04:41:54;;;;;;;9.77;6.10;;;;;;;-5.17;56.15;96167.34;5069624;28;20095;-65
2023/01/21 04:44:19;;;;;;;12.55;7.53;;;;;;;-5.10;53.14;96159.19;5069803;28;20417;-65
2023/01/21 04:46:44;;;;;;;11.98;6.88;;;;;;;-5.04;52.80;96167.63;5067199;28;20507;-65
2023/01/21 04:49:10;;;;;;;9.88;5.65;;;;;;;-4.91;53.32;96163.59;5065832;28;20236;-65
2023/01/21 04:51:35;;;;;;;11.82;6.53;;;;;;;-4.89;53.17;96169.53;5065105;28;20047;-65
2023/01/21 04:54:01;;;;;;;11.27;7.00;;;;;;;-5.03;53.19;96172.75;5067656;28;20513;-65
2023/01/21 04:56:26;;;;;;;12.30;6.70;;;;;;;-5.06;53.60;96170.31;5068542;28;20043;-65
2023/01/21 04:58:51;;;;;;;11.88;6.93;;;;;;;-5.12;53.67;96168.81;5068836;28;20033;-65
2023/01/21 05:01:17;;;;;;;11.38;6.97;;;;;;;-5.08;53.18;96170.38;5073486;28;20516;-65
2023/01/21 05:03:42;;;;;;;9.75;6.35;;;;;;;-5.05;52.56;96171.97;5074773;28;20040;-65
2023/01/21 05:06:08;;;;;;;12.70;6.97;;;;;;;-5.08;52.35;96172.13;5069975;28;20507;-65
2023/01/21 05:08:33;;;;;;;11.88;7.05;;;;;;;-5.02;52.64;96178.78;5072885;28;20066;-64
2023/01/21 05:10:58;;;;;;;13.13;7.38;;;;;;;-5.02;52.39;96171.00;5068329;28;20035;-65
2023/01/21 05:13:24;;;;;;;12.95;7.60;;;;;;;-5.05;51.98;96171.97;5072774;28;20228;-65
2023/01/21 05:15:49;;;;;;;13.23;7.00;;;;;;;-5.02;52.14;96174.44;5071531;28;20089;-64
2023/01/21 05:18:14;;;;;;;11.77;6.05;;;;;;;-5.05;52.06;96176.31;5073631;28;20032;-65
2023/01/21 05:20:40;;;;;;;13.82;7.70;;;;;;;-5.08;52.44;96179.91;5069980;28;20440;-65
2023/01/21 05:23:05;;;;;;;12.55;7.93;;;;;;;-5.29;50.39;96181.66;5071944;28;20039;-65
2023/01/21 05:25:31;;;;;;;13.50;8.27;;;;;;;-5.83;50.34;96176.94;5071784;28;20040;-65
2023/01/21 05:27:56;;;;;;;10.75;6.47;;;;;;;-5.57;52.29;96180.25;5070586;28;20044;-64
2023/01/21 05:30:21;;;;;;;13.23;6.40;;;;;;;-5.36;52.92;96179.31;5070742;28;20077;-65
2023/01/21 05:32:51;;;;;;;11.25;6.47;;;;;;;-5.34;52.47;96180.13;5072067;28;20032;-65
2023/01/21 05:35:19;;;;;;;9.23;5.57;;;;;;;-5.34;52.57;96184.44;5073236;28;20512;-65
2023/01/21 05:37:46;;;;;;;13.30;6.47;;;;;;;-5.45;52.42;96190.09;5072304;28;20043;-65
2023/01/21 05:40:11;;;;;;;10.60;6.35;;;;;;;-5.45;51.97;96190.09;5071690;28;20039;-65
2023/01/21 05:42:37;;;;;;;13.35;7.30;;;;;;;-5.45;52.03;96195.28;5069458;28;20484;-65
2023/01/21 05:45:03;;;;;;;10.15;6.03;;;;;;;-5.46;52.66;96196.22;5070839;28;20024;-65
2023/01/21 05:47:28;;;;;;;12.80;7.30;;;;;;;-5.57;51.90;96190.63;5072502;28;20071;-65
2023/01/21 05:49:53;;;;;;;11.82;6.25;;;;;;;-5.53;52.15;96200.81;5071729;28;20028;-65
2023/01/21 05:52:19;;;;;;;11.30;6.35;;;;;;;-5.56;54.84;96198.34;5064801;28;20095;-65
2023/01/21 05:54:44;;;;;;;11.15;6.38;;;;;;;-5.60;54.68;96197.59;5070357;28;20569;-65
2023/01/21 05:57:10;;;;;;;13.05;6.45;;;;;;;-5.54;55.45;96211.25;5068532;28;20020;-65
2023/01/21 05:59:35;;;;;;;11.07;5.57;;;;;;;-5.59;54.66;96198.47;5072627;28;20044;-65
2023/01/21 06:02:00;;;;;;;12.52;7.03;;;;;;;-5.68;53.65;96204.88;5070283;28;20032;-64
2023/01/21 06:04:29;;;;;;;13.00;6.15;;;;;;;-5.80;53.19;96210.56;5073676;28;20036;-64
2023/01/21 06:06:55;;;;;;;12.32;6.57;;;;;;;-5.79;53.29;96214.84;5074397;28;20028;-65
2023/01/21 06:09:21;;;;;;;11.00;6.70;;;;;;;-5.81;54.29;96208.88;5069608;28;20029;-65
2023/01/21 06:11:46;;;;;;;13.65;6.85;;;;;;;-5.82;55.42;96212.38;5067297;28;20106;-65
2023/01/21 06:14:12;;;;;;;12.15;6.97;;;;;;;-5.78;56.04;96214.78;5075163;28;20040;-65
2023/01/21 06:16:37;;;;;;;12.85;7.10;;;;;;;-5.81;53.88;96203.69;5070832;28;20414;-65
2023/01/21 06:19:02;;;;;;;10.23;5.88;;;;;;;-5.80;55.63;96208.81;5068880;28;20035;-65
2023/01/21 06:21:28;;;;;;;10.25;6.57;;;;;;;-5.90;55.09;96215.25;5069317;28;20138;-65
2023/01/21 06:23:53;;;;;;;17.00;8.50;;;;;;;-5.97;51.26;96210.31;5069772;28;20120;-65
2023/01/21 06:26:18;;;;;;;16.13;7.60;;;;;;;-6.00;51.83;96222.56;5074863;28;20036;-64
2023/01/21 06:28:44;;;;;;;14.43;7.95;;;;;;;-5.92;51.76;96223.09;5071185;28;20528;-64
2023/01/21 06:31:09;;;;;;;11.93;5.95;;;;;;;-6.02;52.72;96226.94;5068639;28;20063;-64
2023/01/21 06:33:35;;;;;;;13.32;6.97;;;;;;;-6.07;52.21;96226.28;5073675;28;20393;-65
2023/01/21 06:36:00;;;;;;;12.35;6.88;;;;;;;-6.16;50.65;96227.50;5069543;28;20039;-64
2023/01/21 06:38:26;;;;;;;12.93;6.78;;;;;;;-6.06;52.89;96221.06;5068478;28;20021;-65
2023/01/21 06:40:51;;;;;;;11.02;6.45;;;;;;;-6.11;50.89;96233.38;5071971;28;20081;-65
2023/01/21 06:43:16;;;;;;;11.75;6.25;;;;;;;-6.03;52.38;96235.63;5070157;28;20119;-65
2023/01/21 06:45:42;;;;;;;11.68;6.35;;;;;;;-6.07;51.77;96231.47;5064608;28;20100;-64
2023/01/21 06:48:08;;;;;;;10.65;6.40;;;;;;;-6.30;50.35;96238.38;5076317;28;20659;-65
2023/01/21 06:50:33;;;;;;;12.68;7.53;;;;;;;-6.28;49.23;96234.00;5071366;28;20580;-65
2023/01/21 06:52:59;;;;;;;11.77;7.05;;;;;;;-6.31;50.90;96241.88;5067755;28;20088;-64
2023/01/21 06:55:24;;;;;;;13.15;7.68;;;;;;;-6.24;49.84;96243.34;5066811;28;20105;-64
2023/01/21 06:57:50;;;;;;;16.60;8.82;;;;;;;-6.82;49.84;96255.78;5063127;28;20578;-64
2023/01/21 07:00:17;;;;;;;10.82;6.50;;;;;;;-6.22;50.23;96254.50;5068262;28;20494;-64
2023/01/21 07:02:42;;;;;;;14.93;6.10;;;;;;;-6.32;53.68;96266.13;5068071;28;20101;-64
2023/01/21 07:05:07;;;;;;;12.00;5.90;;;;;;;-6.00;53.13;96261.47;5069443;28;20098;-64
2023/01/21 07:07:33;;;;;;;10.85;6.47;;;;;;;-5.75;51.40;96265.69;5068923;28;20128;-64
2023/01/21 07:09:58;;;;;;;13.38;7.30;;;;;;;-5.60;51.97;96270.25;5069197;28;20076;-64
2023/01/21 07:12:24;;;;;;;11.27;6.40;;;;;;;-5.38;52.45;96261.63;5070604;28;20429;-65
2023/01/21 07:14:49;;;;;;;16.73;8.18;;;;;;;-5.22;51.68;96266.19;5064126;28;20111;-64
2023/01/21 07:17:15;;;;;;;14.32;8.05;;;;;;;-5.13;50.20;96267.56;5066343;28;20521;-64
2023/01/21 07:19:40;;;;;;;11.15;6.43;;;;;;;-5.28;52.14;96277.66;5072461;28;20104;-64
2023/01/21 07:22:06;;;;;;;11.93;7.40;;;;;;;-5.23;53.26;96282.69;5068558;28;20084;-64
2023/01/21 07:24:31;;;;;;;14.15;7.57;;;;;;;-4.87;50.53;96283.78;5070119;28;20505;-65
2023/01/21 07:26:57;;;;;;;10.85;6.82;;;;;;;-4.89;50.31;96281.25;5065346;28;20501;-65
2023/01/21 07:29:23;;;;;;;14.52;6.90;;;;;;;-4.37;50.12;96290.31;5064496;28;20439;-65
2023/01/21 07:31:48;;;;;;;11.15;6.40;;;;;;;-4.47;49.80;96295.06;5068282;28;20449;-65
2023/01/21 07:34:13;;;;;;;12.43;7.28;;;;;;;-4.29;48.78;96295.16;5074259;28;20137;-64
2023/01/21 07:36:39;;;;;;;9.98;6.32;;;;;;;-4.28;50.20;96296.81;5070439;28;20536;-65
2023/01/21 07:39:04;;;;;;;11.20;5.40;;;;;;;-4.23;52.48;96297.50;5065926;28;20104;-65
2023/01/21 07:41:30;;;;;;;12.80;6.78;;;;;;;-4.30;51.00;96289.13;5071727;28;20670;-64
2023/01/21 07:43:55;;;;;;;10.35;6.30;;;;;;;-4.13;50.61;96294.47;5067688;28;20097;-65
2023/01/21 07:46:21;;;;;;;13.55;5.38;;;;;;;-4.09;51.86;96296.88;5068266;28;20096;-64
2023/01/21 07:48:50;;;;;;;10.00;5.63;;;;;;;-4.49;50.98;96303.84;5069401;28;20142;-65
2023/01/21 07:51:18;;;;;;;10.43;6.00;;;;;;;-4.21;49.41;96302.63;5063462;28;20108;-65
2023/01/21 07:53:44;;;;;;;10.00;5.93;;;;;;;-4.67;55.25;96301.13;5071130;28;20080;-65
2023/01/21 07:56:09;;;;;;;11.75;6.38;;;;;;;-4.44;55.10;96314.88;5069895;28;20566;-65
2023/01/21 07:58:35;;;;;;;12.40;6.65;;;;;;;-4.60;55.11;96307.75;5066706;28;20346;-65
2023/01/21 08:01:06;;;;;;;8.05;5.13;;;;;;;-4.44;56.33;96309.69;5073777;28;20077;-65
2023/01/21 08:03:32;;;;;;;11.20;6.07;;;;;;;-4.21;56.37;96307.81;5067702;28;20662;-65
2023/01/21 08:05:57;;;;;;;12.57;7.00;;;;;;;-4.78;52.57;96306.78;5062722;28;20304;-65
2023/01/21 08:08:22;;;;;;;9.90;5.45;;;;;;;-4.23;60.32;96312.22;5062904;28;20565;-64
2023/01/21 08:10:52;;;;;;;10.93;5.88;;;;;;;-3.84;57.80;96311.34;5065127;28;20173;-64
2023/01/21 08:13:17;;;;;;;11.80;6.25;;;;;;;-3.78;55.53;96310.22;5068120;28;20607;-65
2023/01/21 08:15:43;;;;;;;9.23;5.30;;;;;;;-3.68;57.58;96310.63;5065804;28;20332;-65
2023/01/21 08:18:08;;;;;;;11.85;5.72;;;;;;;-3.58;57.12;96305.81;5067080;28;20092;-64
2023/01/21 08:20:33;;;;;;;11.95;7.57;;;;;;;-3.93;55.01;96312.59;5070847;28;20077;-65
2023/01/21 08:22:59;;;;;;;10.55;6.03;;;;;;;-3.45;59.11;96311.28;5068551;28;20793;-65
2023/01/21 08:25:25;;;;;;;9.95;6.53;;;;;;;-3.50;56.96;96319.31;5066980;28;20184;-65
2023/01/21 08:27:50;;;;;;;16.92;8.48;;;;;;;-3.30;55.23;96322.72;5065134;28;20101;-65
2023/01/21 08:30:16;;;;;;;17.27;9.20;;;;;;;-3.10;58.30;96318.31;5068543;28;20091;-65
2023/01/21 08:32:41;;;;;;;15.82;8.98;;;;;;;-3.03;56.83;96322.31;5066752;28;20398;-65
2023/01/21 08:35:07;;;;;;;18.17;9.38;;;;;;;-2.85;57.47;96311.91;5067853;28;20109;-64
2023/01/21 08:37:32;;;;;;;17.35;9.95;;;;;;;-2.62;52.80;96321.16;5070155;28;20108;-64
2023/01/21 08:39:58;;;;;;;18.75;10.88;;;;;;;-2.59;55.96;96333.19;5067849;28;20107;-65
2023/01/21 08:42:23;;;;;;;13.18;7.25;;;;;;;-3.25;52.06;96325.97;5066350;28;20115;-64
2023/01/21 08:44:50;;;;;;;12.55;7.70;;;;;;;-3.47;50.93;96326.16;5075402;28;20113;-65
2023/01/21 08:47:16;;;;;;;17.65;9.23;;;;;;;-2.95;52.52;96335.78;5067055;28;20617;-65
2023/01/21 08:49:42;;;;;;;12.30;7.35;;;;;;;-3.29;49.46;96327.88;5078607;28;20080;-64
2023/01/21 08:52:09;;;;;;;14.18;7.78;;;;;;;-3.04;49.80;96339.72;5068382;28;20096;-65
2023/01/21 08:54:34;;;;;;;21.83;11.88;;;;;;;-2.79;52.60;96346.31;5066544;28;20452;-64
2023/01/21 08:56:59;;;;;;;13.93;6.18;;;;;;;-2.70;53.02;96339.81;5067046;28;20072;-64
2023/01/21 08:59:27;;;;;;;18.60;11.27;;;;;;;-2.39;53.03;96348.69;5065320;28;20284;-65
2023/01/21 09:01:53;;;;;;;20.20;11.18;;;;;;;-2.53;51.80;96349.38;5065405;28;20087;-65
2023/01/21 09:04:19;;;;;;;15.77;9.05;;;;;;;-2.58;47.40;96347.94;5069017;28;20106;-64
2023/01/21 09:06:44;;;;;;;20.30;12.45;;;;;;;-2.49;54.78;96352.66;5070167;28;20113;-64
2023/01/21 09:09:10;;;;;;;23.08;14.25;;;;;;;-2.33;54.49;96360.56;5073281;28;20033;-65
2023/01/21 09:11:35;;;;;;;16.02;9.35;;;;;;;-2.58;46.50;96353.16;5071757;28;20029;-65
2023/01/21 09:14:03;;;;;;;15.55;8.90;;;;;;;-2.12;47.66;96356.00;5072864;28;20036;-65
2023/01/21 09:16:30;;;;;;;23.10;13.18;;;;;;;-2.03;53.82;96364.25;5073453;28;20063;-65
2023/01/21 09:18:55;;;;;;;15.48;9.05;;;;;;;-2.47;45.62;96363.88;5069487;28;20033;-65
2023/01/21 09:21:21;;;;;;;20.38;11.70;;;;;;;-2.04;48.86;96363.41;5071169;28;20399;-65
2023/01/21 09:23:46;;;;;;;18.10;11.88;;;;;;;-2.37;46.21;96354.63;5076674;28;20481;-65
2023/01/21 09:26:13;;;;;;;30.58;19.92;;;;;;;-1.84;51.99;96364.13;5068942;28;20042;-65
2023/01/21 09:28:41;;;;;;;22.23;13.35;;;;;;;-1.83;47.72;96359.75;5074661;28;20030;-65
2023/01/21 09:31:10;;;;;;;14.63;9.02;;;;;;;-2.18;53.05;96371.09;5069915;28;20036;-65
2023/01/21 09:33:39;;;;;;;28.15;16.98;;;;;;;-1.62;54.22;96360.38;5068257;28;20421;-65
2023/01/21 09:36:05;;;;;;;28.98;19.92;;;;;;;-1.37;54.63;96364.22;5072002;28;20029;-65
2023/01/21 09:38:30;;;;;;;35.53;23.85;;;;;;;-0.92;54.90;96364.38;5071784;28;20044;-65
2023/01/21 09:41:01;;;;;;;28.95;18.67;;;;;;;-1.11;50.06;96356.72;5070608;28;20036;-65
2023/01/21 09:43:30;;;;;;;33.72;21.52;;;;;;;-1.11;53.71;96368.00;5054511;28;20363;-65
2023/01/21 09:45:57;;;;;;;34.72;22.40;;;;;;;-0.74;53.25;96370.31;5069686;28;20036;-65
2023/01/21 09:48:32;;;;;;;17.98;11.77;;;;;;;-1.20;46.95;96373.75;5067298;28;20063;-65
2023/01/21 09:50:58;;;;;;;18.80;10.98;;;;;;;-1.27;46.73;96378.47;5062084;28;20050;-65
2023/01/21 09:53:47;;;;;;;31.58;21.48;;;;;;;-0.82;50.42;96389.09;5071855;28;20659;-65
2023/01/21 09:56:35;;;;;;;26.67;16.45;;;;;;;-0.61;51.97;96383.53;5065729;28;20028;-65
2023/01/21 09:59:07;;;;;;;21.33;14.05;;;;;;;-0.41;51.57;96380.72;5066801;28;20503;-65
2023/01/21 10:01:33;;;;;;;31.27;19.13;;;;;;;-0.61;51.67;96399.22;5052725;28;20126;-65
2023/01/21 10:04:03;;;;;;;33.05;20.75;;;;;;;-0.22;51.68;96394.38;5059525;28;20131;-65
2023/01/21 10:06:47;;;;;;;30.02;18.92;;;;;;;-0.47;47.54;96402.84;5069119;28;20041;-65
2023/01/21 10:10:11;;;;;;;34.30;20.25;;;;;;;-0.03;49.86;96395.88;5066493;28;20043;-65
2023/01/21 10:13:14;;;;;;;36.85;24.45;;;;;;;-0.03;48.00;96398.50;5011029;28;20506;-65
2023/01/21 10:16:17;;;;;;;23.48;15.38;;;;;;;-0.11;49.67;96401.59;5009068;28;20548;-65
2023/01/21 10:18:44;;;;;;;19.65;11.52;;;;;;;0.13;46.05;96401.06;4992944;28;20520;-65
2023/01/21 10:21:20;;;;;;;25.70;18.30;;;;;;;0.31;47.38;96406.94;5059974;28;20028;-65
2023/01/21 10:23:48;;;;;;;21.25;12.75;;;;;;;0.46;41.23;96404.31;5054062;28;20127;-65
2023/01/21 10:26:15;;;;;;;27.17;17.90;;;;;;;0.62;44.73;96406.84;5067838;28;20056;-65
2023/01/21 10:28:43;;;;;;;37.63;21.55;;;;;;;0.82;46.07;96412.59;5070622;28;20032;-65
2023/01/21 10:31:31;;;;;;;27.02;16.77;;;;;;;1.01;49.53;96409.63;5064692;28;20059;-65
2023/01/21 10:33:56;;;;;;;31.95;21.83;;;;;;;1.21;48.33;96410.97;5065436;28;20095;-65
2023/01/21 10:36:44;;;;;;;28.55;19.42;;;;;;;1.00;46.36;96412.34;5071183;28;20116;-65
2023/01/21 10:39:37;;;;;;;24.77;15.68;;;;;;;1.21;41.97;96404.88;5067132;28;20040;-65
2023/01/21 10:42:05;;;;;;;24.83;14.82;;;;;;;1.56;41.09;96409.63;5065214;28;20048;-65
2023/01/21 10:44:54;;;;;;;33.08;23.80;;;;;;;1.94;45.44;96412.44;5063854;28;20056;-65
2023/01/21 10:47:30;;;;;;;13.48;8.40;;;;;;;0.55;39.08;96406.34;5069110;28;20568;-65
2023/01/21 10:50:24;;;;;;;29.75;18.30;;;;;;;1.18;43.57;96405.06;5071722;28;20477;-65
2023/01/21 10:53:10;;;;;;;13.15;7.70;;;;;;;-0.74;44.87;96417.41;5070054;28;20074;-64
2023/01/21 10:55:38;;;;;;;23.77;14.55;;;;;;;0.70;43.70;96408.97;5078265;28;20540;-65
2023/01/21 10:58:39;;;;;;;11.10;6.60;;;;;;;1.62;46.03;96411.00;5071682;28;20075;-65
2023/01/21 11:01:06;;;;;;;18.77;11.68;;;;;;;1.44;42.15;96413.03;5071665;28;20049;-65
2023/01/21 11:03:43;;;;;;;28.98;17.83;;;;;;;1.90;40.37;96405.72;5062374;28;20151;-65
2023/01/21 11:06:11;;;;;;;33.13;22.92;;;;;;;1.94;45.48;96409.81;5063934;28;20120;-65
2023/01/21 11:08:37;;;;;;;33.60;23.08;;;;;;;1.54;45.51;96419.41;5061551;28;20157;-65
2023/01/21 11:11:03;;;;;;;20.95;13.93;;;;;;;2.18;38.21;96416.94;5069941;28;20556;-65
2023/01/21 11:13:28;;;;;;;26.75;16.58;;;;;;;2.17;43.75;96415.28;5054079;28;20068;-65
2023/01/21 11:15:55;;;;;;;38.15;27.42;;;;;;;2.66;46.02;96418.91;5072615;28;20209;-65
2023/01/21 11:18:29;;;;;;;30.80;19.80;;;;;;;2.76;40.28;96419.09;5069736;28;20080;-65
2023/01/21 11:20:59;;;;;;;29.92;19.30;;;;;;;2.47;41.78;96411.44;5069509;28;20066;-65
2023/01/21 11:23:33;;;;;;;25.10;16.70;;;;;;;2.16;36.44;96413.56;5049885;28;20095;-64
2023/01/21 11:26:06;;;;;;;30.80;19.45;;;;;;;2.36;42.38;96420.94;5063732;28;20104;-64
2023/01/21 11:28:33;;;;;;;35.35;22.30;;;;;;;2.62;38.70;96415.63;5068309;28;20118;-64
2023/01/21 11:31:25;;;;;;;29.38;17.90;;;;;;;2.62;39.16;96420.06;5070974;28;20654;-64
2023/01/21 11:33:51;;;;;;;18.58;10.63;;;;;;;2.39;38.48;96423.34;5058965;28;20482;-65
2023/01/21 11:36:18;;;;;;;26.08;15.75;;;;;;;2.53;37.67;96405.78;5072058;28;20096;-65